Time;durP1;ratioP1;P1;durP2;ratioP2;P2;SDS_P1;SDS_P2;PMS_P1;PMS_P2;Temp;Humidity;BMP_temperature;BMP_pressure;BME280_temperature;BME280_humidity;BME280_pressure;Samples;Min_cycle;Max_cycle;Signal;HPM_P1;HPM_P2
2023/03/01 00:00:15;;;;;;;;;;;;;;;;;;5011698;28;19914;-57
2023/03/01 00:02:41;;;;;;;;;;;;;;;;;;5012218;28;20390;-57
2023/03/01 00:05:07;;;;;;;;;;;;;;;;;;5020075;28;20016;-58
2023/03/01 00:07:33;;;;;;;;;;;;;;;;;;5011414;28;19914;-58
2023/03/01 00:09:59;;;;;;;;;;;;;;;;;;5011245;28;20370;-57
2023/03/01 00:12:25;;;;;;;;;;;;;;;;;;5011706;28;19921;-56
2023/03/01 00:14:50;;;;;;;;;;;;;;;;;;5027449;28;19975;-56
2023/03/01 00:17:16;;;;;;;;;;;;;;;;;;5030273;28;19932;-57
2023/03/01 00:19:42;;;;;;;;;;;;;;;;;;5030593;28;19913;-58
2023/03/01 00:22:08;;;;;;;;;;;;;;;;;;5030176;28;20352;-56
2023/03/01 00:24:34;;;;;;;;;;;;;;;;;;5030342;28;21138;-57
2023/03/01 00:27:00;;;;;;;;;;;;;;;;;;5028631;28;19921;-57
2023/03/01 00:29:26;;;;;;;;;;;;;;;;;;5010960;28;19909;-56
2023/03/01 00:31:52;;;;;;;;;;;;;;;;;;5011617;28;19953;-55
2023/03/01 00:34:18;;;;;;;;;;;;;;;;;;5011795;28;19918;-56
2023/03/01 00:36:44;;;;;;;;;;;;;;;;;;5020534;28;19921;-57
2023/03/01 00:39:09;;;;;;;;;;;;;;;;;;5015267;28;20401;-57
2023/03/01 00:41:35;;;;;;;;;;;;;;;;;;5011468;28;19918;-57
2023/03/01 00:44:01;;;;;;;;;;;;;;;;;;5010791;28;20501;-57
2023/03/01 00:46:27;;;;;;;;;;;;;;;;;;5013231;28;20022;-56
2023/03/01 00:48:53;;;;;;;;;;;;;;;;;;5011221;28;19914;-58
2023/03/01 00:51:19;;;;;;;;;;;;;;;;;;5014867;28;19921;-57
2023/03/01 00:53:45;;;;;;;;;;;;;;;;;;5011857;28;20043;-55
2023/03/01 00:56:11;;;;;;;;;;;;;;;;;;5010931;28;19941;-57
2023/03/01 00:58:37;;;;;;;;;;;;;;;;;;5028582;28;19920;-56
2023/03/01 01:01:02;;;;;;;;;;;;;;;;;;5030698;28;19925;-57
2023/03/01 01:03:28;;;;;;;;;;;;;;;;;;5028444;28;20016;-57
2023/03/01 01:05:54;;;;;;;;;;;;;;;;;;5029766;28;19913;-57
2023/03/01 01:08:20;;;;;;;;;;;;;;;;;;5030030;28;19913;-58
2023/03/01 01:10:46;;;;;;;;;;;;;;;;;;5029817;28;20369;-57
2023/03/01 01:13:12;;;;;;;;;;;;;;;;;;5029158;28;20015;-56
2023/03/01 01:15:38;;;;;;;;;;;;;;;;;;5029816;28;19920;-57
2023/03/01 01:18:04;;;;;;;;;;;;;;;;;;5019678;28;19952;-58
2023/03/01 01:20:29;;;;;;;;;;;;;;;;;;5013837;28;19913;-56
2023/03/01 01:22:55;;;;;;;;;;;;;;;;;;5029168;28;19939;-57
2023/03/01 01:25:24;;;;;;;;;;;;;;;;;;5016330;28;19960;-57
2023/03/01 01:27:50;;;;;;;;;;;;;;;;;;5029225;28;19972;-57
2023/03/01 01:30:16;;;;;;;;;;;;;;;;;;5029213;28;20445;-57
2023/03/01 01:32:42;;;;;;;;;;;;;;;;;;5029127;28;19913;-57
2023/03/01 01:35:08;;;;;;;;;;;;;;;;;;5027130;28;20056;-57
2023/03/01 01:37:34;;;;;;;;;;;;;;;;;;5011193;28;19913;-57
2023/03/01 01:40:00;;;;;;;;;;;;;;;;;;5010438;28;19963;-57
2023/03/01 01:42:26;;;;;;;;;;;;;;;;;;5009978;28;19918;-57
2023/03/01 01:44:51;;;;;;;;;;;;;;;;;;5017207;28;20035;-56
2023/03/01 01:47:18;;;;;;;;;;;;;;;;;;5028508;28;19913;-57
2023/03/01 01:49:44;;;;;;;;;;;;;;;;;;5010402;28;19967;-58
2023/03/01 01:52:10;;;;;;;;;;;;;;;;;;5010182;28;19913;-58
2023/03/01 01:54:36;;;;;;;;;;;;;;;;;;5015143;28;19909;-57
2023/03/01 01:57:02;;;;;;;;;;;;;;;;;;5009557;28;20722;-57
2023/03/01 01:59:28;;;;;;;;;;;;;;;;;;5022210;28;19913;-57
2023/03/01 02:01:54;;;;;;;;;;;;;;;;;;5010396;28;20386;-58
2023/03/01 02:04:19;;;;;;;;;;;;;;;;;;5010412;28;19955;-57
2023/03/01 02:06:45;;;;;;;;;;;;;;;;;;5015300;28;20417;-57
2023/03/01 02:09:11;;;;;;;;;;;;;;;;;;5021460;28;19956;-57
2023/03/01 02:11:37;;;;;;;;;;;;;;;;;;5021719;28;19913;-57
2023/03/01 02:14:03;;;;;;;;;;;;;;;;;;5023778;28;19917;-57
2023/03/01 02:16:30;;;;;;;;;;;;;;;;;;5010414;28;19963;-57
2023/03/01 02:18:56;;;;;;;;;;;;;;;;;;5009868;28;20000;-57
2023/03/01 02:21:22;;;;;;;;;;;;;;;;;;5009794;28;19917;-57
2023/03/01 02:23:48;;;;;;;;;;;;;;;;;;5009646;28;20433;-57
2023/03/01 02:26:14;;;;;;;;;;;;;;;;;;5009152;28;19925;-57
2023/03/01 02:28:40;;;;;;;;;;;;;;;;;;5009913;28;20370;-57
2023/03/01 02:33:50;;;;;;;;;;;;;;;;;;5009638;28;19929;-57
2023/03/01 02:36:16;;;;;;;;;;;;;;;;;;5011948;28;19913;-57
2023/03/01 02:38:42;;;;;;;;;;;;;;;;;;5026548;28;19909;-57
2023/03/01 02:41:08;;;;;;;;;;;;;;;;;;5023867;28;19925;-56
2023/03/01 02:43:33;;;;;;;;;;;;;;;;;;5019159;28;20056;-57
2023/03/01 02:45:59;;;;;;;;;;;;;;;;;;5028730;28;19920;-57
2023/03/01 02:48:25;;;;;;;;;;;;;;;;;;5024999;28;20465;-58
2023/03/01 02:50:51;;;;;;;;;;;;;;;;;;5010386;28;19976;-56
2023/03/01 02:53:17;;;;;;;;;;;;;;;;;;5011578;28;19909;-56
2023/03/01 02:55:43;;;;;;;;;;;;;;;;;;5028190;28;19914;-56
2023/03/01 02:58:09;;;;;;;;;;;;;;;;;;5028269;28;19968;-57
2023/03/01 03:00:35;;;;;;;;;;;;;;;;;;5019526;28;20365;-57
2023/03/01 03:03:01;;;;;;;;;;;;;;;;;;5012947;28;19914;-57
2023/03/01 03:05:26;;;;;;;;;;;;;;;;;;5008995;28;19913;-56
2023/03/01 03:07:52;;;;;;;;;;;;;;;;;;5022509;28;19940;-57
2023/03/01 03:10:19;;;;;;;;;;;;;;;;;;5028009;28;19917;-57
2023/03/01 03:12:45;;;;;;;;;;;;;;;;;;5014870;28;19909;-57
2023/03/01 03:15:12;;;;;;;;;;;;;;;;;;5028551;28;19916;-56
2023/03/01 03:17:38;;;;;;;;;;;;;;;;;;5021626;28;19949;-57
2023/03/01 03:20:04;;;;;;;;;;;;;;;;;;5009110;28;19952;-58
2023/03/01 03:22:30;;;;;;;;;;;;;;;;;;5009096;28;19920;-58
2023/03/01 03:24:55;;;;;;;;;;;;;;;;;;5027965;28;19939;-57
2023/03/01 03:27:21;;;;;;;;;;;;;;;;;;5030443;28;19980;-57
2023/03/01 03:29:47;;;;;;;;;;;;;;;;;;5031582;28;19999;-58
2023/03/01 03:32:13;;;;;;;;;;;;;;;;;;5031733;28;20303;-57
2023/03/01 03:34:39;;;;;;;;;;;;;;;;;;5031307;28;19909;-56
2023/03/01 03:38:01;;;;;;;;;;;;;;;;;;5019491;28;19920;-58
2023/03/01 03:39:54;;;;;;;;;;;;;;;;;;5025601;28;19953;-58
2023/03/01 03:42:20;;;;;;;;;;;;;;;;;;5031054;28;19961;-57
2023/03/01 03:44:46;;;;;;;;;;;;;;;;;;5031037;28;19953;-56
2023/03/01 03:47:12;;;;;;;;;;;;;;;;;;5031408;28;19913;-57
2023/03/01 03:49:38;;;;;;;;;;;;;;;;;;5011789;28;19917;-57
2023/03/01 03:52:03;;;;;;;;;;;;;;;;;;5024181;28;20004;-58
2023/03/01 03:54:29;;;;;;;;;;;;;;;;;;5031093;28;20301;-57
2023/03/01 03:56:55;;;;;;;;;;;;;;;;;;5030765;28;19963;-57
2023/03/01 03:59:21;;;;;;;;;;;;;;;;;;5030724;28;19937;-57
2023/03/01 04:01:47;;;;;;;;;;;;;;;;;;5025316;28;20370;-57
2023/03/01 04:04:13;;;;;;;;;;;;;;;;;;5012126;28;19913;-57
2023/03/01 04:06:39;;;;;;;;;;;;;;;;;;5013039;28;19920;-57
2023/03/01 04:09:05;;;;;;;;;;;;;;;;;;5015794;28;19920;-57
2023/03/01 04:11:31;;;;;;;;;;;;;;;;;;5030953;28;19913;-57
2023/03/01 04:13:57;;;;;;;;;;;;;;;;;;5026490;28;19993;-57
2023/03/01 04:16:23;;;;;;;;;;;;;;;;;;5011538;28;19956;-57
2023/03/01 04:18:49;;;;;;;;;;;;;;;;;;5011537;28;19974;-56
2023/03/01 04:21:15;;;;;;;;;;;;;;;;;;5011837;28;20353;-57
2023/03/01 04:23:40;;;;;;;;;;;;;;;;;;5014711;28;19956;-57
2023/03/01 04:26:06;;;;;;;;;;;;;;;;;;5014606;28;20448;-57
2023/03/01 04:28:34;;;;;;;;;;;;;;;;;;5011466;28;19964;-57
2023/03/01 04:31:00;;;;;;;;;;;;;;;;;;5013640;28;19955;-57
2023/03/01 04:33:26;;;;;;;;;;;;;;;;;;5015114;28;20457;-57
2023/03/01 04:35:52;;;;;;;;;;;;;;;;;;5012309;28;19944;-57
2023/03/01 04:38:17;;;;;;;;;;;;;;;;;;5011266;28;19921;-57
2023/03/01 04:40:43;;;;;;;;;;;;;;;;;;5025250;28;19913;-57
2023/03/01 04:43:09;;;;;;;;;;;;;;;;;;5030431;28;19909;-56
2023/03/01 04:45:35;;;;;;;;;;;;;;;;;;5030097;28;19920;-57
2023/03/01 04:48:01;;;;;;;;;;;;;;;;;;5017181;28;19914;-57
2023/03/01 04:50:27;;;;;;;;;;;;;;;;;;5023697;28;19913;-59
2023/03/01 04:52:53;;;;;;;;;;;;;;;;;;5023986;28;19962;-57
2023/03/01 04:55:19;;;;;;;;;;;;;;;;;;5010854;28;19910;-56
2023/03/01 04:57:45;;;;;;;;;;;;;;;;;;5030217;28;19909;-57
2023/03/01 05:00:20;;;;;;;;;;;;;;;;;;5030442;28;19913;-57
2023/03/01 05:02:46;;;;;;;;;;;;;;;;;;5015160;28;19921;-57
2023/03/01 05:05:12;;;;;;;;;;;;;;;;;;5010402;28;20293;-57
2023/03/01 05:07:38;;;;;;;;;;;;;;;;;;5017272;28;20000;-58
2023/03/01 05:10:04;;;;;;;;;;;;;;;;;;5029684;28;20396;-57
2023/03/01 05:12:30;;;;;;;;;;;;;;;;;;5029404;28;19909;-58
2023/03/01 05:14:56;;;;;;;;;;;;;;;;;;5029257;28;20692;-57
2023/03/01 05:17:22;;;;;;;;;;;;;;;;;;5029516;28;19923;-58
2023/03/01 05:19:48;;;;;;;;;;;;;;;;;;5029382;28;20396;-57
2023/03/01 05:22:14;;;;;;;;;;;;;;;;;;5029625;28;20023;-55
2023/03/01 05:24:39;;;;;;;;;;;;;;;;;;5029360;28;19976;-57
2023/03/01 05:27:06;;;;;;;;;;;;;;;;;;5028994;28;19944;-58
2023/03/01 05:29:34;;;;;;;;;;;;;;;;;;5029673;28;19928;-58
2023/03/01 05:32:00;;;;;;;;;;;;;;;;;;5018899;28;20374;-57
2023/03/01 05:34:26;;;;;;;;;;;;;;;;;;5020274;28;20040;-57
2023/03/01 05:36:52;;;;;;;;;;;;;;;;;;5016320;28;20015;-57
2023/03/01 05:39:18;;;;;;;;;;;;;;;;;;5020648;28;19931;-57
2023/03/01 05:41:44;;;;;;;;;;;;;;;;;;5025816;28;20468;-58
2023/03/01 05:44:12;;;;;;;;;;;;;;;;;;5029029;28;19913;-59
2023/03/01 05:46:37;;;;;;;;;;;;;;;;;;5029085;28;19967;-57
2023/03/01 05:49:04;;;;;;;;;;;;;;;;;;5025913;28;19929;-58
2023/03/01 05:51:30;;;;;;;;;;;;;;;;;;5010072;28;20304;-57
2023/03/01 05:53:55;;;;;;;;;;;;;;;;;;5010059;28;19937;-57
2023/03/01 05:56:22;;;;;;;;;;;;;;;;;;5010062;28;20012;-57
2023/03/01 05:58:48;;;;;;;;;;;;;;;;;;5010171;28;20003;-55
2023/03/01 06:01:13;;;;;;;;;;;;;;;;;;5017828;28;20449;-57
2023/03/01 06:03:39;;;;;;;;;;;;;;;;;;5027950;28;20007;-57
2023/03/01 06:06:05;;;;;;;;;;;;;;;;;;5028717;28;19909;-56
2023/03/01 06:08:31;;;;;;;;;;;;;;;;;;5029268;28;19913;-57
2023/03/01 06:10:57;;;;;;;;;;;;;;;;;;5028743;28;19909;-57
2023/03/01 06:13:23;;;;;;;;;;;;;;;;;;5028316;28;19913;-56
2023/03/01 06:15:49;;;;;;;;;;;;;;;;;;5010158;28;19952;-57
2023/03/01 06:18:15;;;;;;;;;;;;;;;;;;5015279;28;19914;-57
2023/03/01 06:20:41;;;;;;;;;;;;;;;;;;5009471;28;19913;-57
2023/03/01 06:23:06;;;;;;;;;;;;;;;;;;5027770;28;19920;-57
2023/03/01 06:25:32;;;;;;;;;;;;;;;;;;5023025;28;19929;-57
2023/03/01 06:27:58;;;;;;;;;;;;;;;;;;5009737;28;19964;-57
2023/03/01 06:30:24;;;;;;;;;;;;;;;;;;5020982;28;19921;-57
2023/03/01 06:32:50;;;;;;;;;;;;;;;;;;5027697;28;20400;-58
2023/03/01 06:35:19;;;;;;;;;;;;;;;;;;5022782;28;19913;-57
2023/03/01 06:37:45;;;;;;;;;;;;;;;;;;5021857;28;19914;-55
2023/03/01 06:40:11;;;;;;;;;;;;;;;;;;5026284;28;19909;-57
2023/03/01 06:42:37;;;;;;;;;;;;;;;;;;5021626;28;19917;-57
2023/03/01 06:45:03;;;;;;;;;;;;;;;;;;5028096;28;19928;-58
2023/03/01 06:47:28;;;;;;;;;;;;;;;;;;5028654;28;20003;-57
2023/03/01 06:49:54;;;;;;;;;;;;;;;;;;5028139;28;19923;-56
2023/03/01 06:52:20;;;;;;;;;;;;;;;;;;5012281;28;19916;-57
2023/03/01 06:54:46;;;;;;;;;;;;;;;;;;5009250;28;20002;-57
2023/03/01 06:57:12;;;;;;;;;;;;;;;;;;5009518;28;19920;-57
2023/03/01 06:59:38;;;;;;;;;;;;;;;;;;5008951;28;19940;-57
2023/03/01 07:02:04;;;;;;;;;;;;;;;;;;5011947;28;20389;-57
2023/03/01 07:04:30;;;;;;;;;;;;;;;;;;5020849;28;19913;-57
2023/03/01 07:06:56;;;;;;;;;;;;;;;;;;5031672;28;19913;-57
2023/03/01 07:09:22;;;;;;;;;;;;;;;;;;5026070;28;19995;-58
2023/03/01 07:11:48;;;;;;;;;;;;;;;;;;5013962;28;19909;-57
2023/03/01 07:14:13;;;;;;;;;;;;;;;;;;5031134;28;20336;-58
2023/03/01 07:16:39;;;;;;;;;;;;;;;;;;5017729;28;19960;-57
2023/03/01 07:19:05;;;;;;;;;;;;;;;;;;5012134;28;19979;-58
2023/03/01 07:21:31;;;;;;;;;;;;;;;;;;5017712;28;19933;-57
2023/03/01 07:23:57;;;;;;;;;;;;;;;;;;5011928;28;19914;-56
2023/03/01 07:26:23;;;;;;;;;;;;;;;;;;5012221;28;19932;-57
2023/03/01 07:28:49;;;;;;;;;;;;;;;;;;5011991;28;19910;-56
2023/03/01 07:31:15;;;;;;;;;;;;;;;;;;5011676;28;20060;-57
2023/03/01 07:33:41;;;;;;;;;;;;;;;;;;5018427;28;20384;-55
2023/03/01 07:36:06;;;;;;;;;;;;;;;;;;5019006;28;19909;-58
2023/03/01 07:38:32;;;;;;;;;;;;;;;;;;5012190;28;20408;-56
2023/03/01 07:40:59;;;;;;;;;;;;;;;;;;5012199;28;19957;-57
2023/03/01 07:43:24;;;;;;;;;;;;;;;;;;5011624;28;19913;-55
2023/03/01 07:45:51;;;;;;;;;;;;;;;;;;5021731;28;19931;-57
2023/03/01 07:48:17;;;;;;;;;;;;;;;;;;5030851;28;19913;-56
2023/03/01 07:50:43;;;;;;;;;;;;;;;;;;5030881;28;19963;-57
2023/03/01 07:53:09;;;;;;;;;;;;;;;;;;5031054;28;19953;-56
2023/03/01 07:55:34;;;;;;;;;;;;;;;;;;5030790;28;19913;-57
2023/03/01 07:58:00;;;;;;;;;;;;;;;;;;5030890;28;20432;-57
2023/03/01 08:00:26;;;;;;;;;;;;;;;;;;5030900;28;19909;-57
2023/03/01 08:02:52;;;;;;;;;;;;;;;;;;5030850;28;19928;-56
2023/03/01 08:05:18;;;;;;;;;;;;;;;;;;5030574;28;19917;-58
2023/03/01 08:07:44;;;;;;;;;;;;;;;;;;5027408;28;20275;-57
2023/03/01 08:10:10;;;;;;;;;;;;;;;;;;5016786;28;20314;-58
2023/03/01 08:12:36;;;;;;;;;;;;;;;;;;5026914;28;19921;-57
2023/03/01 08:15:02;;;;;;;;;;;;;;;;;;5010565;28;20032;-57
2023/03/01 08:17:28;;;;;;;;;;;;;;;;;;5015240;28;20064;-62
2023/03/01 08:19:54;;;;;;;;;;;;;;;;;;5013707;28;20338;-62
2023/03/01 08:22:19;;;;;;;;;;;;;;;;;;5010858;28;19921;-62
2023/03/01 08:24:45;;;;;;;;;;;;;;;;;;5028385;28;20014;-61
2023/03/01 08:27:12;;;;;;;;;;;;;;;;;;5027063;28;19936;-62
2023/03/01 08:29:37;;;;;;;;;;;;;;;;;;5011575;28;19910;-64
2023/03/01 08:32:04;;;;;;;;;;;;;;;;;;5011032;28;19936;-63
2023/03/01 08:34:31;;;;;;;;;;;;;;;;;;5011268;28;20382;-64
2023/03/01 08:36:56;;;;;;;;;;;;;;;;;;5015660;28;20043;-63
2023/03/01 08:39:22;;;;;;;;;;;;;;;;;;5021465;28;19948;-63
2023/03/01 08:41:48;;;;;;;;;;;;;;;;;;5029069;28;19917;-63
2023/03/01 08:44:16;;;;;;;;;;;;;;;;;;5015638;28;19913;-62
2023/03/01 08:46:42;;;;;;;;;;;;;;;;;;5020866;28;19944;-62
2023/03/01 08:49:08;;;;;;;;;;;;;;;;;;5023495;28;20440;-62
2023/03/01 08:51:36;;;;;;;;;;;;;;;;;;5019388;28;20370;-63
2023/03/01 08:54:02;;;;;;;;;;;;;;;;;;5018113;28;20508;-61
2023/03/01 08:56:28;;;;;;;;;;;;;;;;;;5017173;28;20374;-63
2023/03/01 08:58:54;;;;;;;;;;;;;;;;;;5013981;28;19975;-64
2023/03/01 09:01:20;;;;;;;;;;;;;;;;;;5029488;28;20477;-62
2023/03/01 09:03:45;;;;;;;;;;;;;;;;;;5029911;28;20012;-63
2023/03/01 09:06:11;;;;;;;;;;;;;;;;;;5029697;28;19909;-63
2023/03/01 09:08:37;;;;;;;;;;;;;;;;;;5029337;28;19914;-63
2023/03/01 09:11:03;;;;;;;;;;;;;;;;;;5028796;28;19951;-64
2023/03/01 09:13:32;;;;;;;;;;;;;;;;;;5020817;28;19921;-63
2023/03/01 09:15:58;;;;;;;;;;;;;;;;;;5010922;28;19925;-62
2023/03/01 09:18:24;;;;;;;;;;;;;;;;;;5011302;28;19921;-64
2023/03/01 09:20:50;;;;;;;;;;;;;;;;;;5020933;28;20337;-64
2023/03/01 09:23:16;;;;;;;;;;;;;;;;;;5027661;28;20024;-64
2023/03/01 09:25:42;;;;;;;;;;;;;;;;;;5015261;28;20715;-63
2023/03/01 09:28:08;;;;;;;;;;;;;;;;;;5015854;28;19913;-65
2023/03/01 09:30:33;;;;;;;;;;;;;;;;;;5010363;28;19920;-65
2023/03/01 09:32:59;;;;;;;;;;;;;;;;;;5011689;28;19997;-64
2023/03/01 09:35:25;;;;;;;;;;;;;;;;;;5015493;28;19914;-64
2023/03/01 09:37:51;;;;;;;;;;;;;;;;;;5023015;28;19909;-63
2023/03/01 09:40:17;;;;;;;;;;;;;;;;;;5009673;28;19960;-63
2023/03/01 09:42:43;;;;;;;;;;;;;;;;;;5028106;28;19925;-65
2023/03/01 09:45:09;;;;;;;;;;;;;;;;;;5017633;28;20569;-64
2023/03/01 09:47:35;;;;;;;;;;;;;;;;;;5009516;28;19909;-66
2023/03/01 09:50:01;;;;;;;;;;;;;;;;;;5010225;28;19913;-64
2023/03/01 09:52:27;;;;;;;;;;;;;;;;;;5015655;28;19917;-64
2023/03/01 09:54:52;;;;;;;;;;;;;;;;;;5009000;28;20050;-64
2023/03/01 09:57:19;;;;;;;;;;;;;;;;;;5013399;28;19928;-64
2023/03/01 09:59:45;;;;;;;;;;;;;;;;;;5018441;28;19914;-66
2023/03/01 10:02:10;;;;;;;;;;;;;;;;;;5014041;28;19921;-64
2023/03/01 10:04:36;;;;;;;;;;;;;;;;;;5009525;28;20367;-65
2023/03/01 10:07:02;;;;;;;;;;;;;;;;;;5009736;28;19920;-64
2023/03/01 10:09:28;;;;;;;;;;;;;;;;;;5023358;28;19919;-63
2023/03/01 10:11:54;;;;;;;;;;;;;;;;;;5028752;28;19913;-63
2023/03/01 10:14:20;;;;;;;;;;;;;;;;;;5021662;28;20377;-62
2023/03/01 10:16:46;;;;;;;;;;;;;;;;;;5028225;28;19963;-64
2023/03/01 10:19:12;;;;;;;;;;;;;;;;;;5021413;28;20293;-62
2023/03/01 10:21:37;;;;;;;;;;;;;;;;;;5027676;28;19928;-62
2023/03/01 10:24:04;;;;;;;;;;;;;;;;;;5025076;28;20270;-61
2023/03/01 10:26:30;;;;;;;;;;;;;;;;;;5013661;28;19977;-62
2023/03/01 10:28:56;;;;;;;;;;;;;;;;;;5008958;28;20329;-63
2023/03/01 10:31:22;;;;;;;;;;;;;;;;;;5014898;28;19913;-62
2023/03/01 10:33:51;;;;;;;;;;;;;;;;;;5009443;28;20385;-64
2023/03/01 10:36:17;;;;;;;;;;;;;;;;;;5019480;28;19917;-63
2023/03/01 10:38:43;;;;;;;;;;;;;;;;;;5025073;28;19925;-67
2023/03/01 10:41:09;;;;;;;;;;;;;;;;;;5013079;28;19913;-63
2023/03/01 10:43:34;;;;;;;;;;;;;;;;;;5032075;28;19913;-64
2023/03/01 10:46:00;;;;;;;;;;;;;;;;;;5013204;28;19953;-65
2023/03/01 10:48:28;;;;;;;;;;;;;;;;;;5030951;28;19921;-64
2023/03/01 10:50:53;;;;;;;;;;;;;;;;;;5032260;28;20468;-62
2023/03/01 10:53:19;;;;;;;;;;;;;;;;;;5018496;28;19971;-64
2023/03/01 10:55:45;;;;;;;;;;;;;;;;;;5022890;28;19944;-65
2023/03/01 10:58:11;;;;;;;;;;;;;;;;;;5018585;28;20704;-64
2023/03/01 11:00:37;;;;;;;;;;;;;;;;;;5019732;28;19914;-64
2023/03/01 11:03:03;;;;;;;;;;;;;;;;;;5012723;28;19940;-63
2023/03/01 11:05:30;;;;;;;;;;;;;;;;;;5012547;28;20005;-64
2023/03/01 11:07:56;;;;;;;;;;;;;;;;;;5022346;28;19931;-65
2023/03/01 11:10:22;;;;;;;;;;;;;;;;;;5031788;28;19913;-61
2023/03/01 11:12:48;;;;;;;;;;;;;;;;;;5021118;28;19974;-64
2023/03/01 11:15:14;;;;;;;;;;;;;;;;;;5012383;28;19959;-64
2023/03/01 11:17:40;;;;;;;;;;;;;;;;;;5015131;28;19913;-64
2023/03/01 11:20:06;;;;;;;;;;;;;;;;;;5031368;28;19960;-62
2023/03/01 11:22:32;;;;;;;;;;;;;;;;;;5030751;28;19928;-61
2023/03/01 11:24:58;;;;;;;;;;;;;;;;;;5026157;28;20309;-61
2023/03/01 11:27:24;;;;;;;;;;;;;;;;;;5031095;28;20019;-63
2023/03/01 11:29:50;;;;;;;;;;;;;;;;;;5027839;28;20008;-62
2023/03/01 11:32:16;;;;;;;;;;;;;;;;;;5027641;28;19963;-62
2023/03/01 11:34:42;;;;;;;;;;;;;;;;;;5028201;28;19917;-63
2023/03/01 11:37:08;;;;;;;;;;;;;;;;;;5026103;28;19936;-63
2023/03/01 11:39:34;;;;;;;;;;;;;;;;;;5021160;28;19924;-64
2023/03/01 11:42:00;;;;;;;;;;;;;;;;;;5011648;28;20037;-64
2023/03/01 11:44:26;;;;;;;;;;;;;;;;;;5015795;28;19920;-64
2023/03/01 11:46:52;;;;;;;;;;;;;;;;;;5030008;28;19909;-66
2023/03/01 11:49:18;;;;;;;;;;;;;;;;;;5031134;28;19909;-66
2023/03/01 11:51:43;;;;;;;;;;;;;;;;;;5013880;28;20313;-66
2023/03/01 11:54:09;;;;;;;;;;;;;;;;;;5011334;28;19913;-66
2023/03/01 11:56:35;;;;;;;;;;;;;;;;;;5030115;28;19917;-64
2023/03/01 11:59:01;;;;;;;;;;;;;;;;;;5016833;28;19935;-63
2023/03/01 12:01:27;;;;;;;;;;;;;;;;;;5027126;28;19921;-63
2023/03/01 12:03:53;;;;;;;;;;;;;;;;;;5027995;28;19913;-63
2023/03/01 12:06:23;;;;;;;;;;;;;;;;;;5024258;28;20008;-65
2023/03/01 12:08:49;;;;;;;;;;;;;;;;;;5026109;28;19913;-64
2023/03/01 12:11:15;;;;;;;;;;;;;;;;;;5025962;28;19920;-62
2023/03/01 12:13:41;;;;;;;;;;;;;;;;;;5027052;28;19960;-63
2023/03/01 12:16:07;;;;;;;;;;;;;;;;;;5027821;28;19913;-63
2023/03/01 12:18:33;;;;;;;;;;;;;;;;;;5024606;28;20298;-65
2023/03/01 12:20:59;;;;;;;;;;;;;;;;;;5024762;28;19917;-66
2023/03/01 12:23:25;;;;;;;;;;;;;;;;;;5016793;28;19920;-65
2023/03/01 12:25:51;;;;;;;;;;;;;;;;;;5026980;28;19929;-64
2023/03/01 12:28:17;;;;;;;;;;;;;;;;;;5011001;28;19913;-64
2023/03/01 12:30:43;;;;;;;;;;;;;;;;;;5011631;28;19936;-67
2023/03/01 12:33:09;;;;;;;;;;;;;;;;;;5014577;28;20378;-65
2023/03/01 12:35:35;;;;;;;;;;;;;;;;;;5016697;28;19928;-65
2023/03/01 12:38:01;;;;;;;;;;;;;;;;;;5018752;28;19909;-63
2023/03/01 12:40:27;;;;;;;;;;;;;;;;;;5021970;28;20374;-65
2023/03/01 12:42:53;;;;;;;;;;;;;;;;;;5013500;28;20287;-66
2023/03/01 12:45:18;;;;;;;;;;;;;;;;;;5012528;28;20343;-66
2023/03/01 12:47:44;;;;;;;;;;;;;;;;;;5010679;28;19913;-66
2023/03/01 12:50:10;;;;;;;;;;;;;;;;;;5021622;28;20259;-64
2023/03/01 12:52:36;;;;;;;;;;;;;;;;;;5030548;28;19909;-65
2023/03/01 12:55:02;;;;;;;;;;;;;;;;;;5011214;28;19918;-63
2023/03/01 12:57:36;;;;;;;;;;;;;;;;;;5024145;28;19909;-63
2023/03/01 13:00:08;;;;;;;;;;;;;;;;;;5014849;28;19913;-63
2023/03/01 13:02:34;;;;;;;;;;;;;;;;;;5017739;28;20004;-63
2023/03/01 13:05:00;;;;;;;;;;;;;;;;;;5016412;28;19914;-63
2023/03/01 13:07:27;;;;;;;;;;;;;;;;;;5011424;28;20438;-64
2023/03/01 13:09:53;;;;;;;;;;;;;;;;;;5024272;28;20058;-66
2023/03/01 13:12:18;;;;;;;;;;;;;;;;;;5030260;28;20000;-67
2023/03/01 13:14:45;;;;;;;;;;;;;;;;;;5010939;28;19909;-67
2023/03/01 13:17:10;;;;;;;;;;;;;;;;;;5010590;28;19936;-67
2023/03/01 13:19:36;;;;;;;;;;;;;;;;;;5010965;28;20349;-68
2023/03/01 13:22:02;;;;;;;;;;;;;;;;;;5010749;28;20008;-66
2023/03/01 13:24:28;;;;;;;;;;;;;;;;;;5011073;28;19963;-62
2023/03/01 13:26:54;;;;;;;;;;;;;;;;;;5014682;28;19953;-64
2023/03/01 13:29:20;;;;;;;;;;;;;;;;;;5010586;28;19949;-65
2023/03/01 13:31:46;;;;;;;;;;;;;;;;;;5010292;28;19920;-63
2023/03/01 13:34:12;;;;;;;;;;;;;;;;;;5027765;28;19951;-62
2023/03/01 13:36:37;;;;;;;;;;;;;;;;;;5020859;28;19913;-62
2023/03/01 13:39:03;;;;;;;;;;;;;;;;;;5014494;28;20540;-62
2023/03/01 13:41:29;;;;;;;;;;;;;;;;;;5029136;28;19921;-63
2023/03/01 13:43:55;;;;;;;;;;;;;;;;;;5029471;28;19913;-62
2023/03/01 13:46:21;;;;;;;;;;;;;;;;;;5029127;28;19936;-63
2023/03/01 13:48:47;;;;;;;;;;;;;;;;;;5026752;28;19925;-66
2023/03/01 13:51:13;;;;;;;;;;;;;;;;;;5011102;28;20016;-66
2023/03/01 13:53:39;;;;;;;;;;;;;;;;;;5010053;28;20416;-61
2023/03/01 13:56:05;;;;;;;;;;;;;;;;;;5024672;28;19913;-61
2023/03/01 13:58:31;;;;;;;;;;;;;;;;;;5029368;28;19913;-62
2023/03/01 14:00:57;;;;;;;;;;;;;;;;;;5022221;28;19913;-62
2023/03/01 14:03:22;;;;;;;;;;;;;;;;;;5028930;28;19979;-65
2023/03/01 14:05:48;;;;;;;;;;;;;;;;;;5029160;28;19920;-67
2023/03/01 14:08:14;;;;;;;;;;;;;;;;;;5028882;28;19913;-62
2023/03/01 14:10:40;;;;;;;;;;;;;;;;;;5028175;28;20377;-65
2023/03/01 14:13:06;;;;;;;;;;;;;;;;;;5010145;28;20055;-68
2023/03/01 14:15:32;;;;;;;;;;;;;;;;;;5016096;28;19910;-65
2023/03/01 14:17:58;;;;;;;;;;;;;;;;;;5015852;28;19920;-62
2023/03/01 14:20:24;;;;;;;;;;;;;;;;;;5015514;28;19937;-63
2023/03/01 14:22:50;;;;;;;;;;;;;;;;;;5012927;28;20370;-62
2023/03/01 14:25:16;;;;;;;;;;;;;;;;;;5027490;28;19994;-63
2023/03/01 14:27:42;;;;;;;;;;;;;;;;;;5028329;28;19967;-63
2023/03/01 14:30:08;;;;;;;;;;;;;;;;;;5023105;28;19914;-63
2023/03/01 14:32:34;;;;;;;;;;;;;;;;;;5009576;28;19921;-64
2023/03/01 14:34:59;;;;;;;;;;;;;;;;;;5020386;28;20028;-62
2023/03/01 14:37:25;;;;;;;;;;;;;;;;;;5011665;28;19913;-65
2023/03/01 14:39:52;;;;;;;;;;;;;;;;;;5020106;28;19916;-63
2023/03/01 14:42:17;;;;;;;;;;;;;;;;;;5028612;28;19921;-65
2023/03/01 14:44:43;;;;;;;;;;;;;;;;;;5027902;28;19917;-63
2023/03/01 14:47:09;;;;;;;;;;;;;;;;;;5028506;28;20333;-64
2023/03/01 14:49:36;;;;;;;;;;;;;;;;;;5012487;28;20012;-63
2023/03/01 14:52:02;;;;;;;;;;;;;;;;;;5009709;28;19959;-63
2023/03/01 14:54:28;;;;;;;;;;;;;;;;;;5009534;28;19928;-63
2023/03/01 14:56:54;;;;;;;;;;;;;;;;;;5015925;28;19987;-61
2023/03/01 14:59:20;;;;;;;;;;;;;;;;;;5015411;28;20321;-61
2023/03/01 15:01:46;;;;;;;;;;;;;;;;;;5016997;28;19939;-62
2023/03/01 15:04:12;;;;;;;;;;;;;;;;;;5020408;28;19913;-64
2023/03/01 15:06:38;;;;;;;;;;;;;;;;;;5009169;28;20413;-64
2023/03/01 15:09:04;;;;;;;;;;;;;;;;;;5016102;28;19975;-63
2023/03/01 15:11:29;;;;;;;;;;;;;;;;;;5028124;28;19948;-62
2023/03/01 15:13:55;;;;;;;;;;;;;;;;;;5008706;28;19910;-62
2023/03/01 15:16:21;;;;;;;;;;;;;;;;;;5021716;28;19920;-63
2023/03/01 15:18:47;;;;;;;;;;;;;;;;;;5027935;28;19921;-62
2023/03/01 15:21:13;;;;;;;;;;;;;;;;;;5015344;28;20489;-62
2023/03/01 15:23:40;;;;;;;;;;;;;;;;;;5018111;28;19917;-62
2023/03/01 15:26:05;;;;;;;;;;;;;;;;;;5017922;28;19932;-61
2023/03/01 15:28:32;;;;;;;;;;;;;;;;;;5025442;28;20337;-61
2023/03/01 15:30:57;;;;;;;;;;;;;;;;;;5012205;28;19921;-62
2023/03/01 15:33:23;;;;;;;;;;;;;;;;;;5012111;28;19917;-63
2023/03/01 15:35:49;;;;;;;;;;;;;;;;;;5022179;28;20243;-63
2023/03/01 15:38:15;;;;;;;;;;;;;;;;;;5013686;28;19920;-62
2023/03/01 15:40:41;;;;;;;;;;;;;;;;;;5011990;28;19914;-63
2023/03/01 15:43:07;;;;;;;;;;;;;;;;;;5011573;28;20341;-63
2023/03/01 15:45:38;;;;;;;;;;;;;;;;;;5015788;28;19909;-65
2023/03/01 15:48:04;;;;;;;;;;;;;;;;;;5030865;28;19963;-61
2023/03/01 15:50:30;;;;;;;;;;;;;;;;;;5030792;28;19944;-62
2023/03/01 15:52:56;;;;;;;;;;;;;;;;;;5030797;28;19913;-62
2023/03/01 15:55:22;;;;;;;;;;;;;;;;;;5014489;28;19914;-62
2023/03/01 15:57:47;;;;;;;;;;;;;;;;;;5011783;28;19917;-64
2023/03/01 16:00:13;;;;;;;;;;;;;;;;;;5012167;28;19918;-66
2023/03/01 16:02:39;;;;;;;;;;;;;;;;;;5011683;28;19917;-62
2023/03/01 16:05:05;;;;;;;;;;;;;;;;;;5020717;28;20266;-63
2023/03/01 16:07:31;;;;;;;;;;;;;;;;;;5028903;28;19917;-63
2023/03/01 16:09:57;;;;;;;;;;;;;;;;;;5030552;28;19913;-63
2023/03/01 16:12:24;;;;;;;;;;;;;;;;;;5028769;28;19935;-63
2023/03/01 16:14:49;;;;;;;;;;;;;;;;;;5011727;28;19909;-64
2023/03/01 16:17:15;;;;;;;;;;;;;;;;;;5011415;28;20296;-64
2023/03/01 16:19:41;;;;;;;;;;;;;;;;;;5024651;28;19921;-64
2023/03/01 16:22:07;;;;;;;;;;;;;;;;;;5023796;28;20463;-65
2023/03/01 16:24:35;;;;;;;;;;;;;;;;;;5024410;28;19914;-63
2023/03/01 16:27:01;;;;;;;;;;;;;;;;;;5022500;28;20466;-68
2023/03/01 16:29:28;;;;;;;;;;;;;;;;;;5010623;28;20020;-66
2023/03/01 16:31:54;;;;;;;;;;;;;;;;;;5017482;28;19921;-65
2023/03/01 16:34:21;;;;;;;;;;;;;;;;;;5028810;28;19971;-64
2023/03/01 16:36:47;;;;;;;;;;;;;;;;;;5017134;28;19913;-62
2023/03/01 16:39:13;;;;;;;;;;;;;;;;;;5012223;28;19992;-64